createdAt,value
2022-10-28T00:01:17.387Z,100.00
2022-10-28T00:03:47.511Z,100.00
2022-10-28T00:06:18.145Z,100.00
2022-10-28T00:08:45.794Z,100.00
2022-10-28T00:11:19.727Z,100.00
2022-10-28T00:13:48.002Z,100.00
2022-10-28T00:16:21.623Z,100.00
2022-10-28T00:18:52.492Z,100.00
2022-10-28T00:21:26.606Z,100.00
2022-10-28T00:23:54.309Z,100.00
2022-10-28T00:26:24.731Z,100.00
2022-10-28T00:29:00.931Z,100.00
2022-10-28T00:31:29.812Z,100.00
2022-10-28T00:33:59.022Z,100.00
2022-10-28T00:36:35.700Z,100.00
2022-10-28T00:39:09.803Z,100.00
2022-10-28T00:41:39.033Z,100.00
2022-10-28T00:44:36.963Z,100.00
2022-10-28T00:47:06.031Z,100.00
2022-10-28T00:49:34.628Z,100.00
2022-10-28T00:52:07.996Z,100.00
2022-10-28T00:54:37.840Z,100.00
2022-10-28T00:57:10.006Z,100.00
2022-10-28T00:59:42.258Z,100.00
2022-10-28T01:02:09.886Z,100.00
2022-10-28T01:04:38.007Z,100.00
2022-10-28T01:07:06.475Z,100.00
2022-10-28T01:09:33.799Z,100.00
2022-10-28T01:12:34.641Z,100.00
2022-10-28T01:15:16.490Z,100.00
2022-10-28T01:18:02.573Z,100.00
2022-10-28T01:20:41.016Z,100.00
2022-10-28T01:23:28.145Z,100.00
2022-10-28T01:26:29.334Z,100.00
2022-10-28T01:29:15.241Z,100.00
2022-10-28T01:31:50.174Z,100.00
2022-10-28T01:34:41.106Z,100.00
2022-10-28T01:37:43.258Z,100.00
2022-10-28T01:40:21.611Z,100.00
2022-10-28T01:43:03.755Z,100.00
2022-10-28T01:45:40.755Z,100.00
2022-10-28T01:48:14.164Z,98.27
2022-10-28T01:50:56.004Z,94.59
2022-10-28T01:53:31.040Z,91.11
2022-10-28T01:56:03.844Z,90.62
2022-10-28T01:58:33.416Z,91.00
2022-10-28T02:01:09.326Z,92.94
2022-10-28T02:03:37.165Z,94.13
2022-10-28T02:06:15.066Z,94.93
2022-10-28T02:09:07.217Z,96.01
2022-10-28T02:11:40.889Z,95.96
2022-10-28T02:14:39.555Z,95.57
2022-10-28T02:17:43.837Z,94.24
2022-10-28T02:20:37.210Z,94.45
2022-10-28T02:23:10.641Z,94.69
2022-10-28T02:26:01.196Z,95.25
2022-10-28T02:28:41.348Z,95.81
2022-10-28T02:31:23.911Z,96.86
2022-10-28T02:34:00.148Z,96.51
2022-10-28T02:36:30.827Z,96.68
2022-10-28T02:38:59.155Z,97.52
2022-10-28T02:42:02.772Z,99.01
2022-10-28T02:44:35.263Z,100.00
2022-10-28T02:47:08.171Z,100.00
2022-10-28T02:49:38.996Z,100.00
2022-10-28T02:52:07.345Z,100.00
2022-10-28T02:54:40.812Z,100.00
2022-10-28T02:57:12.657Z,100.00
2022-10-28T02:59:40.682Z,100.00
2022-10-28T03:02:09.924Z,100.00
2022-10-28T03:04:37.677Z,100.00
2022-10-28T03:07:04.979Z,100.00
2022-10-28T03:09:32.323Z,100.00
2022-10-28T03:11:59.635Z,100.00
2022-10-28T03:14:26.974Z,100.00
2022-10-28T03:16:54.292Z,100.00
2022-10-28T03:19:21.643Z,100.00
2022-10-28T03:21:48.967Z,100.00
2022-10-28T03:24:16.368Z,100.00
2022-10-28T03:26:43.904Z,100.00
2022-10-28T03:29:11.244Z,100.00
2022-10-28T03:31:38.559Z,100.00
2022-10-28T03:34:05.906Z,100.00
2022-10-28T03:36:33.247Z,100.00
2022-10-28T03:39:00.695Z,100.00
2022-10-28T03:41:28.061Z,100.00
2022-10-28T03:43:55.554Z,100.00
2022-10-28T03:46:22.883Z,100.00
2022-10-28T03:48:50.319Z,100.00
2022-10-28T03:51:17.897Z,100.00
2022-10-28T03:53:45.274Z,100.00
2022-10-28T03:56:12.780Z,100.00
2022-10-28T03:58:41.215Z,100.00
2022-10-28T04:01:09.039Z,100.00
2022-10-28T04:03:36.543Z,100.00
2022-10-28T04:06:06.625Z,100.00
2022-10-28T04:08:33.985Z,100.00
2022-10-28T04:11:01.376Z,100.00
2022-10-28T04:13:28.704Z,100.00
2022-10-28T04:15:56.674Z,100.00
2022-10-28T04:18:24.088Z,100.00
2022-10-28T04:20:51.507Z,100.00
2022-10-28T04:23:19.295Z,100.00
2022-10-28T04:25:46.682Z,100.00
2022-10-28T04:28:14.287Z,100.00
2022-10-28T04:30:41.597Z,100.00
2022-10-28T04:33:12.373Z,100.00
2022-10-28T04:35:42.804Z,100.00
2022-10-28T04:38:11.281Z,100.00
2022-10-28T04:40:38.658Z,100.00
2022-10-28T04:43:08.512Z,100.00
2022-10-28T04:45:38.044Z,100.00
2022-10-28T04:48:05.535Z,100.00
2022-10-28T04:50:32.912Z,100.00
2022-10-28T04:53:02.270Z,100.00
2022-10-28T04:55:29.603Z,100.00
2022-10-28T04:57:59.167Z,100.00
2022-10-28T05:00:28.969Z,100.00
2022-10-28T05:02:57.156Z,100.00
2022-10-28T05:05:25.796Z,100.00
2022-10-28T05:07:53.408Z,100.00
2022-10-28T05:10:20.882Z,100.00
2022-10-28T05:12:48.707Z,100.00
2022-10-28T05:15:16.179Z,100.00
2022-10-28T05:17:44.822Z,100.00
2022-10-28T05:20:14.539Z,100.00
2022-10-28T05:22:53.731Z,100.00
2022-10-28T05:25:22.509Z,100.00
2022-10-28T05:27:50.219Z,100.00
2022-10-28T05:30:20.228Z,100.00
2022-10-28T05:32:49.317Z,100.00
2022-10-28T05:35:18.978Z,100.00
2022-10-28T05:37:46.463Z,100.00
2022-10-28T05:40:13.738Z,100.00
2022-10-28T05:42:42.626Z,100.00
2022-10-28T05:45:11.171Z,100.00
2022-10-28T05:47:45.948Z,100.00
2022-10-28T05:50:15.422Z,100.00
2022-10-28T05:52:50.010Z,100.00
2022-10-28T05:55:21.947Z,100.00
2022-10-28T05:57:53.234Z,100.00
2022-10-28T06:00:24.156Z,100.00
2022-10-28T06:02:51.811Z,100.00
2022-10-28T06:05:19.584Z,100.00
2022-10-28T06:07:46.957Z,100.00
2022-10-28T06:10:14.341Z,100.00
2022-10-28T06:12:40.175Z,100.00
2022-10-28T06:15:07.946Z,100.00
2022-10-28T06:17:35.358Z,100.00
2022-10-28T06:20:06.133Z,100.00
2022-10-28T06:22:33.532Z,100.00
2022-10-28T06:25:01.165Z,100.00
2022-10-28T06:27:28.474Z,100.00
2022-10-28T06:29:56.055Z,100.00
2022-10-28T06:32:23.367Z,99.97
2022-10-28T06:34:50.693Z,99.45
2022-10-28T06:37:17.961Z,99.12
2022-10-28T06:39:49.753Z,99.28
2022-10-28T06:42:17.747Z,98.57
2022-10-28T06:44:45.110Z,96.95
2022-10-28T06:47:14.527Z,95.67
2022-10-28T06:49:41.919Z,95.46
2022-10-28T06:52:10.867Z,95.56
2022-10-28T06:54:39.376Z,95.46
2022-10-28T06:57:09.296Z,94.58
2022-10-28T06:59:36.894Z,94.37
2022-10-28T07:02:04.705Z,94.87
2022-10-28T07:04:33.790Z,94.21
2022-10-28T07:07:01.165Z,93.59
2022-10-28T07:09:28.534Z,92.35
2022-10-28T07:11:57.039Z,92.28
2022-10-28T07:14:26.107Z,91.26
2022-10-28T07:16:53.406Z,90.42
2022-10-28T07:19:22.729Z,89.87
2022-10-28T07:21:50.137Z,89.05
2022-10-28T07:24:17.679Z,88.74
2022-10-28T07:26:48.763Z,88.43
2022-10-28T07:29:16.598Z,88.22
2022-10-28T07:31:43.911Z,86.91
2022-10-28T07:34:11.366Z,84.95
2022-10-28T07:36:38.805Z,81.27
2022-10-28T07:39:06.148Z,79.66
2022-10-28T07:41:33.506Z,77.18
2022-10-28T07:44:00.902Z,76.57
2022-10-28T07:46:28.199Z,75.14
2022-10-28T07:48:55.608Z,74.44
2022-10-28T07:51:22.883Z,75.38
2022-10-28T07:53:50.178Z,73.95
2022-10-28T07:56:17.625Z,71.00
2022-10-28T07:58:45.450Z,69.39
2022-10-28T08:01:16.485Z,69.32
2022-10-28T08:03:44.691Z,68.42
2022-10-28T08:06:18.111Z,61.70
2022-10-28T08:08:47.757Z,55.25
2022-10-28T08:11:20.551Z,52.07
2022-10-28T08:13:48.496Z,49.07
2022-10-28T08:16:16.498Z,47.53
2022-10-28T08:18:46.550Z,47.17
2022-10-28T08:21:15.084Z,46.17
2022-10-28T08:23:46.543Z,46.41
2022-10-28T08:26:16.626Z,45.94
2022-10-28T08:28:44.064Z,45.46
2022-10-28T08:31:12.481Z,45.20
2022-10-28T08:33:44.368Z,44.53
2022-10-28T08:36:14.545Z,43.89
2022-10-28T08:38:48.048Z,41.90
2022-10-28T08:41:43.439Z,42.34
2022-10-28T08:44:32.176Z,41.33
2022-10-28T08:47:08.498Z,41.43
2022-10-28T08:49:42.447Z,42.33
2022-10-28T08:52:37.495Z,42.00
2022-10-28T08:55:07.720Z,41.67
2022-10-28T08:57:41.108Z,40.46
2022-10-28T09:00:21.942Z,40.44
2022-10-28T09:03:14.526Z,40.34
2022-10-28T09:05:45.685Z,40.12
2022-10-28T09:08:22.591Z,40.90
2022-10-28T09:11:11.857Z,40.36
2022-10-28T09:14:12.896Z,40.78
2022-10-28T09:17:04.993Z,40.40
2022-10-28T09:19:38.593Z,42.66
2022-10-28T09:22:21.588Z,44.26
2022-10-28T09:24:59.909Z,45.16
2022-10-28T09:28:14.819Z,47.34
2022-10-28T09:31:05.283Z,48.54
2022-10-28T09:33:35.469Z,49.23
2022-10-28T09:36:13.021Z,50.70
2022-10-28T09:38:40.977Z,52.16
2022-10-28T09:41:36.373Z,53.60
2022-10-28T09:44:28.880Z,55.24
2022-10-28T09:47:00.698Z,57.09
2022-10-28T09:49:31.251Z,57.81
2022-10-28T09:52:12.821Z,57.73
2022-10-28T09:54:48.567Z,58.89
2022-10-28T09:57:17.398Z,59.10
2022-10-28T09:59:45.692Z,58.65
2022-10-28T10:02:35.839Z,58.36
2022-10-28T10:05:03.872Z,59.75
2022-10-28T10:07:41.428Z,59.15
2022-10-28T10:10:20.000Z,59.67
2022-10-28T10:12:52.476Z,59.61
2022-10-28T10:15:28.793Z,59.69
2022-10-28T10:18:05.056Z,60.71
2022-10-28T10:20:55.888Z,62.55
2022-10-28T10:23:33.504Z,61.49
2022-10-28T10:26:09.503Z,62.56
2022-10-28T10:28:50.882Z,62.40
2022-10-28T10:31:21.037Z,62.60
2022-10-28T10:33:57.390Z,62.35
2022-10-28T10:36:33.147Z,62.59
2022-10-28T10:39:03.026Z,62.26
2022-10-28T10:41:37.423Z,60.48
2022-10-28T10:44:23.117Z,59.73
2022-10-28T10:47:10.696Z,60.60
2022-10-28T10:49:37.997Z,60.29
2022-10-28T10:52:18.612Z,60.93
2022-10-28T10:55:01.252Z,60.16
2022-10-28T10:57:31.695Z,60.81
2022-10-28T10:59:59.479Z,60.02
2022-10-28T11:02:32.494Z,60.96
2022-10-28T11:05:03.958Z,59.98
2022-10-28T11:07:32.878Z,59.58
2022-10-28T11:10:01.889Z,59.72
2022-10-28T11:12:32.139Z,59.23
2022-10-28T11:15:05.229Z,58.86
2022-10-28T11:17:34.618Z,58.02
2022-10-28T11:20:32.694Z,57.80
2022-10-28T11:23:23.397Z,57.61
2022-10-28T11:25:54.403Z,56.91
2022-10-28T11:28:51.006Z,56.74
2022-10-28T11:31:21.256Z,56.22
2022-10-28T11:34:07.096Z,56.40
2022-10-28T11:36:43.355Z,56.29
2022-10-28T11:39:22.561Z,54.47
2022-10-28T11:42:07.323Z,55.03
2022-10-28T11:44:56.469Z,54.70
2022-10-28T11:47:46.999Z,54.15
2022-10-28T11:50:32.136Z,53.74
2022-10-28T11:53:37.200Z,53.02
2022-10-28T11:56:41.412Z,52.94
2022-10-28T11:59:33.089Z,52.50
2022-10-28T12:02:24.897Z,51.87
2022-10-28T12:05:11.441Z,51.58
2022-10-28T12:08:08.998Z,50.53
2022-10-28T12:10:48.321Z,50.18
2022-10-28T12:13:58.640Z,49.58
2022-10-28T12:16:41.040Z,49.47
2022-10-28T12:19:23.040Z,50.17
2022-10-28T12:22:05.894Z,49.57
2022-10-28T12:24:37.589Z,49.82
2022-10-28T12:27:18.173Z,50.23
2022-10-28T12:29:51.394Z,51.09
2022-10-28T12:32:26.288Z,48.09
2022-10-28T12:35:02.941Z,49.74
2022-10-28T12:37:48.538Z,49.22
2022-10-28T12:40:24.095Z,49.91
2022-10-28T12:43:01.862Z,49.10
2022-10-28T12:45:31.379Z,49.45
2022-10-28T12:48:06.676Z,48.72
2022-10-28T12:50:47.648Z,47.71
2022-10-28T12:53:39.552Z,48.44
2022-10-28T12:56:14.067Z,48.95
2022-10-28T12:58:44.441Z,48.88
2022-10-28T13:01:19.374Z,49.94
2022-10-28T13:03:50.397Z,48.83
2022-10-28T13:06:30.014Z,50.36
2022-10-28T13:09:03.538Z,49.48
2022-10-28T13:11:35.016Z,49.51
2022-10-28T13:14:25.182Z,49.58
2022-10-28T13:17:36.754Z,50.02
2022-10-28T13:20:18.262Z,48.91
2022-10-28T13:23:17.360Z,48.45
2022-10-28T13:25:47.302Z,47.96
2022-10-28T13:28:18.146Z,48.24
2022-10-28T13:31:00.533Z,48.12
2022-10-28T13:33:29.916Z,47.40
2022-10-28T13:36:17.559Z,47.79
2022-10-28T13:39:24.948Z,48.01
2022-10-28T13:42:16.044Z,47.50
2022-10-28T13:44:49.152Z,48.15
2022-10-28T13:47:16.476Z,48.79
2022-10-28T13:50:02.309Z,48.42
2022-10-28T13:52:29.744Z,48.13
2022-10-28T13:55:01.982Z,48.59
2022-10-28T13:57:36.678Z,48.67
2022-10-28T14:00:06.153Z,50.00
2022-10-28T14:02:47.848Z,50.44
2022-10-28T14:05:17.606Z,51.03
2022-10-28T14:07:55.664Z,51.81
2022-10-28T14:10:30.597Z,52.59
2022-10-28T14:13:02.380Z,52.11
2022-10-28T14:15:37.190Z,52.40
2022-10-28T14:21:08.028Z,52.39
2022-10-28T14:23:36.559Z,52.86
2022-10-28T14:26:07.388Z,52.62
2022-10-28T14:28:34.664Z,53.56
2022-10-28T14:31:07.886Z,54.14
2022-10-28T14:33:56.478Z,54.68
2022-10-28T14:36:49.885Z,55.25
2022-10-28T14:39:23.548Z,55.20
2022-10-28T14:42:12.307Z,55.58
2022-10-28T14:45:02.505Z,56.59
2022-10-28T14:48:07.812Z,56.47
2022-10-28T14:50:43.165Z,56.52
2022-10-28T14:53:20.115Z,56.98
2022-10-28T14:55:56.070Z,57.33
2022-10-28T14:58:28.333Z,57.16
2022-10-28T15:00:58.498Z,57.19
2022-10-28T15:03:26.573Z,58.37
2022-10-28T15:05:53.904Z,57.20
2022-10-28T15:08:21.357Z,57.50
2022-10-28T15:10:49.727Z,58.11
2022-10-28T15:13:19.017Z,58.66
2022-10-28T15:15:54.564Z,59.74
2022-10-28T15:18:24.978Z,59.98
2022-10-28T15:21:15.345Z,60.21
2022-10-28T15:23:46.144Z,60.80
2022-10-28T15:26:16.305Z,61.56
2022-10-28T15:28:43.779Z,60.74
2022-10-28T15:31:11.152Z,61.49
2022-10-28T15:33:40.853Z,61.19
2022-10-28T15:36:24.686Z,61.45
2022-10-28T15:39:07.318Z,61.44
2022-10-28T15:41:43.749Z,61.70
2022-10-28T15:44:38.648Z,62.07
2022-10-28T15:47:26.125Z,62.03
2022-10-28T15:50:14.956Z,62.14
2022-10-28T15:52:51.245Z,62.74
2022-10-28T15:55:18.589Z,62.83
2022-10-28T15:57:49.945Z,63.12
2022-10-28T16:00:24.385Z,63.67
2022-10-28T16:02:53.608Z,64.03
2022-10-28T16:05:34.037Z,64.25
2022-10-28T16:08:02.585Z,64.80
2022-10-28T16:10:42.805Z,65.20
2022-10-28T16:13:19.269Z,65.82
2022-10-28T16:16:00.633Z,66.68
2022-10-28T16:18:31.561Z,67.60
2022-10-28T16:21:00.377Z,68.02
2022-10-28T16:23:35.109Z,68.23
2022-10-28T16:26:02.572Z,68.73
2022-10-28T16:28:31.634Z,68.91
2022-10-28T16:31:01.017Z,69.43
2022-10-28T16:33:32.039Z,70.31
2022-10-28T16:36:00.835Z,69.53
2022-10-28T16:38:30.980Z,70.02
2022-10-28T16:41:00.808Z,71.82
2022-10-28T16:43:29.753Z,72.60
2022-10-28T16:46:00.770Z,72.41
2022-10-28T16:48:30.504Z,73.46
2022-10-28T16:51:06.473Z,73.09
2022-10-28T16:53:34.124Z,72.87
2022-10-28T16:56:01.448Z,72.83
2022-10-28T16:58:29.422Z,72.87
2022-10-28T17:00:56.985Z,72.60
2022-10-28T17:03:24.359Z,72.73
2022-10-28T17:05:52.509Z,73.30
2022-10-28T17:08:36.218Z,74.56
2022-10-28T17:11:07.276Z,76.01
2022-10-28T17:13:34.723Z,76.69
2022-10-28T17:16:02.107Z,76.83
2022-10-28T17:18:29.461Z,77.17
2022-10-28T17:21:01.254Z,76.92
2022-10-28T17:23:29.669Z,77.18
2022-10-28T17:26:01.175Z,77.80
2022-10-28T17:28:28.888Z,78.09
2022-10-28T17:31:07.509Z,78.30
2022-10-28T17:33:35.831Z,77.92
2022-10-28T17:36:05.365Z,78.14
2022-10-28T17:38:32.765Z,78.25
2022-10-28T17:41:00.157Z,78.30
2022-10-28T17:43:27.822Z,79.18
2022-10-28T17:46:05.395Z,79.82
2022-10-28T17:48:33.065Z,79.97
2022-10-28T17:51:00.666Z,80.70
2022-10-28T17:53:28.151Z,81.16
2022-10-28T17:56:17.105Z,81.74
2022-10-28T17:58:44.453Z,82.01
2022-10-28T18:01:12.493Z,82.13
2022-10-28T18:03:39.976Z,82.24
2022-10-28T18:06:13.348Z,83.09
2022-10-28T18:08:42.774Z,83.69
2022-10-28T18:11:13.248Z,84.87
2022-10-28T18:13:45.068Z,85.22
2022-10-28T18:16:24.259Z,85.91
2022-10-28T18:18:51.698Z,86.68
2022-10-28T18:21:19.168Z,86.89
2022-10-28T18:23:52.377Z,86.74
2022-10-28T18:26:20.409Z,86.61
2022-10-28T18:28:48.905Z,86.82
2022-10-28T18:31:18.612Z,86.75
2022-10-28T18:33:47.039Z,86.18
2022-10-28T18:36:17.796Z,86.48
